LGTS - Thessaloniki/Mik, Greece
Distance from station: 15km
: 21/07/2024 21:50
Clear
Clear

: 9 km/h
: 31°C
Heat Index: 35°C
: 22°C
: 59%
: 1006 hPa
: Clear
Visibility: greater than 10 km
2024/07/21 18:50 LGTS 211850Z 16005KT CAVOK 31/22 Q1006 NOSIG
LGKZ - Kozani (civ/Army, Greece
Distance from station: 113km
: 21/07/2024 21:50


: 7 km/h
: 31°C
: 10°C
: 27%
: 1010 hPa
2024/07/21 18:50 LGKZ 211850Z AUTO 33004KT 260V360 //// // ////// 31/10 Q1010 RE//
 
LGKV - Kavala/Chrisoupo, Greece
Distance from station: 132km
: 21/07/2024 21:50
Few Clouds
Few Clouds
   calm
:
: 26°C
: 21°C
: 74%
: 1006 hPa
Clouds: Few Clouds
Visibility: 10 km
Cloud details: Few Clouds 762 m
2024/07/21 18:50 LGKV 211850Z 00000KT 9999 FEW025 26/21 Q1006
LGBL - Nea Anchialos, Greece
Distance from station: 156km
: 21/07/2024 21:50
Clear
Clear
   calm
:
: 30°C
Heat Index: 34°C
: 23°C
: 66%
: 1006 hPa
: Clear
Visibility: greater than 10 km
2024/07/21 18:50 LGBL 211850Z 00000KT CAVOK 30/23 Q1006
 
LGSK - Skiathos Island, Greece
Distance from station: 161km
: 21/07/2024 21:50
Clear
Clear

: 13 km/h
: 29°C
Heat Index: 32°C
: 22°C
: 66%
: 1005 hPa
: Clear
Visibility: greater than 10 km
2024/07/21 18:50 LGSK 211850Z 19007KT CAVOK 29/22 Q1005
LWSK - Skopje/Petrovac, Macedonia
Distance from station: 195km
: 21/07/2024 21:50
Partly Cloudy
Partly Cloudy

: 26 km/h
: 31°C
Heat Index: 33°C
: 19°C
: 49%
: 1007 hPa
Clouds: Partly Cloudy
Visibility: 10 km
Cloud details: Partly Cloudy 1829 m
2024/07/21 18:50 LWSK 211850Z 02014KT 9999 SCT060 31/19 Q1007 NOSIG
 
LGLM - Limnos Island Ar, Greece
Distance from station: 196km
: 21/07/2024 21:50
Clear
Clear
   varies
: varies 4 km/h
: 28°C
Heat Index: 29°C
: 19°C
: 58%
: 1005 hPa
: Clear
Visibility: greater than 10 km
2024/07/21 18:50 LGLM 211850Z VRB02KT CAVOK 28/19 Q1005
LWOH - Ohrid, Macedonia
Distance from station: 202km
: 21/07/2024 21:50
Clear
Clear

: 7 km/h
: 24°C
: 17°C
: 65%
: 1012 hPa
: Clear
Visibility: greater than 10 km
2024/07/21 18:50 LWOH 211850Z 25004KT 180V280 CAVOK 24/17 Q1012
 
LGSY - Skiros, Greece
Distance from station: 217km
: 21/07/2024 20:50
NOT Current
Clear
Clear
   varies
: varies 4 km/h
: 30°C
: 14°C
: 38%
: 1005 hPa
: Clear
Visibility: greater than 10 km
2024/07/21 17:50 LGSY 211750Z VRB02KT CAVOK 30/14 Q1005 BLU
LGIO - Ioannina, Greece
Distance from station: 218km
: 21/07/2024 21:50
Few Clouds
Few Clouds
   calm
:
: 28°C
Heat Index: 28°C
: 17°C
: 51%
: 1011 hPa
Clouds: Few Clouds
Visibility: 10 km
Cloud details: Few Clouds 1219 m
2024/07/21 18:50 LGIO 211850Z 00000KT 9999 FEW040 28/17 Q1011
 
LBPD - Plovdiv, Bulgaria
Distance from station: 222km
: 21/07/2024 22:00
Few Clouds
Few Clouds

: 19 km/h
: 29°C
Heat Index: 30°C
: 19°C
: 55%
: 1008 hPa
Clouds: Few Clouds
Visibility: 10 km
Cloud details: Few Clouds 4572 m
2024/07/21 19:00 LBPD 211900Z AUTO 09010KT 9999 FEW150/// 29/19 Q1008 NOSIG
LBSF - Sofia (observato, Bulgaria
Distance from station: 229km
: 21/07/2024 22:00
Partly Cloudy
Partly Cloudy

: 6 km/h
: 25°C
: 19°C
: 69%
: 1011 hPa
Clouds: Partly Cloudy
Visibility: 10 km
2024/07/21 19:00 LBSF 211900Z AUTO 08003KT 050V110 9999 NSC 25/19 Q1011 NOSIG
 
LGAL - Alexandroupolis, Greece
Distance from station: 242km
: 21/07/2024 21:50
Clear
Clear
   calm
:
: 30°C
Heat Index: 32°C
: 20°C
: 55%
: 1006 hPa
: Clear
Visibility: greater than 10 km
2024/07/21 18:50 LGAL 211850Z 00000KT CAVOK 30/20 Q1006
LGPZ - Preveza/Aktion, Greece
Distance from station: 274km
: 21/07/2024 21:50
Clear
Clear

: 20 km/h
: 28°C
Heat Index: 32°C
: 25°C
: 84%
: 1008 hPa
: Clear
Visibility: greater than 10 km
2024/07/21 18:50 LGPZ 211850Z 25011KT CAVOK 28/25 Q1008
 
BKPR - Prishtina, Yugoslavia
Distance from station: 280km
: 21/07/2024 22:00
Clear
Clear

: 24 km/h
: 23°C
: 20°C
: 83%
: 1011 hPa
: Clear
Visibility: greater than 10 km
2024/07/21 19:00 BKPR 211900Z 36013KT CAVOK 23/20 Q1011 NOSIG
LGEL - Elefsis (hel-Afb, Greece
Distance from station: 284km
: 21/07/2024 21:50
Clear
Clear
   varies
: varies 4 km/h
: 31°C
Heat Index: 32°C
: 17°C
: 43%
: 1007 hPa
: Clear
Visibility: greater than 10 km
2024/07/21 18:50 LGEL 211850Z VRB02KT CAVOK 31/17 Q1007
 
LATI - Tirana, Albania
Distance from station: 291km
: 21/07/2024 21:50
Clear
Clear
   varies
: varies 4 km/h
: 26°C
: 22°C
: 79%
: 1009 hPa
: Clear
Visibility: greater than 10 km
2024/07/21 18:50 LATI 211850Z VRB02KT CAVOK 26/22 Q1009 NOSIG
LGKR - Ioannis Kapodist, Greece
Distance from station: 292km
: 21/07/2024 21:50
Clear
Clear

: 13 km/h
: 30°C
Heat Index: 35°C
: 24°C
: 70%
: 1007 hPa
: Clear
Visibility: greater than 10 km
2024/07/21 18:50 LGKR 211850Z 27007KT CAVOK 30/24 Q1007 NOSIG